Portada
METAR-TAF:

METAR-TAF

Aeropuertos :

Tuzla, Bosnia y Herzegovina

latitud: 44-33N, longitud: 018-42E, altitud: 306 m

Observación

El informe se hizo hace 33 minutos, a las 20:00 UTC
Viento 4 kt del sureste, variando entre este-noreste y suroeste
Temperatura 11°C
Humedad 66%
Presión 1015 hPa
Visibilidad 10 km o más
Escasas nubes a una altura de 5000 ft

METAR: LQTZ 212000Z 14004KT 060V220 9999 FEW050 11/05 Q1015

Hora: 21:33 (20:33 UTC)

Pronóstico

El informe se hizo hace 3 horas y 33 minutos, a las 17:00 UTC
Pronóstico válido del 21 a las 18 UTC al 22 a las 18 UTC
Viento 5 kt del este
Visibilidad 10 km o más
sin nubes por debajo de 1500 m y sin presencia de cumulonimbus.
Probabilidad 40% :
Temporalmente
del 21 a las 18 UTC al 22 a las 18 UTC
Viento 10 kt del sur

TAF: LQTZ 211700Z 2118/2218 10005KT CAVOK TX16/2213Z TN01/2202Z PROB40 TEMPO 2118/2218 18010KT

Observaciones y pronósticos meteorológicos de más de 4000 aeropuertos (mensajes METAR y TAF).

Los puntos amarillos y rojos representan las estaciones disponibles.

Ponga el ratón en el punto deseado para ver el nombre de la estación.

Haga clic para ver las observaciones y los pronósticos meteorológicos.

Para cambiar el mapa : haga clic en los botones verdes con una cruz de color negro para hacer un zoom, en el botón verde con un guión para alejar o en las flechas verdes para mapas adyacentes.


METAR-TAF: